Forester — DIUT — position and weather

sailwx.info

Track history (hours):
 
Tides and Currents Weather Stations Pressure Air Temp Water Temp Dewpoint Dewpoint Depression Visibility Wind Speed Wind Dir Waves Ship Positions

Forester

Last reported at 2017-Mar-25 01:32 UTC. Time now 2017-Mar-25 02:03 UTC.
Position N 51°15' E 004°23'.

Length 100 m; draft 4.8 m.

Type: Ship. MMSI: 211233870.

Date/timePositionNaut miles runAvg speedWind from/ knotsBaromVisibWave heightAir tempDewpointWater temp
2017-Mar-25 01:32N 51°15' E 004°23'0 0.0
2017-Mar-25 00:32N 51°15' E 004°23'0 0.0
2017-Mar-24 23:32N 51°15' E 004°23'0 0.0
2017-Mar-24 22:28N 51°15' E 004°23'0 0.0
2017-Mar-24 21:31N 51°15' E 004°23'0 0.0
2017-Mar-24 20:31N 51°15' E 004°23'0 0.0
2017-Mar-24 19:31N 51°15' E 004°23'0 0.0
2017-Mar-24 18:31N 51°15' E 004°23'0 0.0
2017-Mar-24 17:31N 51°15' E 004°23'0 0.0
2017-Mar-24 16:31N 51°15' E 004°23'0 0.0
2017-Mar-24 15:31N 51°15' E 004°23'0 0.0
2017-Mar-24 14:31N 51°15' E 004°23'0 0.0
2017-Mar-24 13:31N 51°15' E 004°23'0 0.0
2017-Mar-24 12:31N 51°15' E 004°23'0 0.0
2017-Mar-24 11:31N 51°15' E 004°23'0 0.0
2017-Mar-24 10:31N 51°15' E 004°23'0 0.0
2017-Mar-24 09:31N 51°15' E 004°23'0 0.0
2017-Mar-24 08:31N 51°15' E 004°23'0 0.0
2017-Mar-24 07:31N 51°15' E 004°23'0 0.0
2017-Mar-24 06:31N 51°15' E 004°23'0 0.0
2017-Mar-24 05:31N 51°15' E 004°23'0 0.0
2017-Mar-24 04:31N 51°15' E 004°23'0 0.0
2017-Mar-24 03:31N 51°15' E 004°23'0 0.0
2017-Mar-24 02:31N 51°15' E 004°23'0 0.0
2017-Mar-24 01:31N 51°15' E 004°23'0 0.0
2017-Mar-24 00:31N 51°15' E 004°23'0 0.0
2017-Mar-23 23:31N 51°15' E 004°23'0 0.0
2017-Mar-23 22:31N 51°15' E 004°23'0 0.0
2017-Mar-23 21:31N 51°15' E 004°23'0 0.0
2017-Mar-23 20:31N 51°15' E 004°23'0 0.0
2017-Mar-23 19:31N 51°15' E 004°23'0 0.0
2017-Mar-23 18:31N 51°15' E 004°23'0 0.0
2017-Mar-23 17:31N 51°15' E 004°23'0 0.0
2017-Mar-23 16:31N 51°15' E 004°23'0 0.0
2017-Mar-23 15:34N 51°15' E 004°23'0 0.0
2017-Mar-23 14:30N 51°15' E 004°23'0 0.0
2017-Mar-23 13:33N 51°15' E 004°23'0 0.0
2017-Mar-23 12:33N 51°15' E 004°23'0 0.0
2017-Mar-23 11:33N 51°15' E 004°23'0 0.0
2017-Mar-23 10:33N 51°15' E 004°23'0 0.0
2017-Mar-23 09:33N 51°15' E 004°23'0 0.0
2017-Mar-23 08:33N 51°15' E 004°23'0 0.0
2017-Mar-23 07:33N 51°15' E 004°23'0 0.0
2017-Mar-23 06:33N 51°15' E 004°23'3 2.7
2017-Mar-23 05:33N 51°17' E 004°20'2 1.7
2017-Mar-23 04:33N 51°15' E 004°18'8 7.6
2017-Mar-23 03:33N 51°08' E 004°19'2 2.2
2017-Mar-23 02:33N 51°06' E 004°20'2 0.1
2017-Mar-22 02:30N 51°05' E 004°22'  
2017-Mar-19 17:29N 51°06' E 004°19'1 1.5
2017-Mar-19 16:33N 51°07' E 004°18'8 7.6
2017-Mar-19 15:33N 51°14' E 004°24'7 7.5
2017-Mar-19 14:33N 51°20' E 004°16'12 9.0
2017-Mar-19 13:14N 51°26' E 003°60'710.5
2017-Mar-19 12:33N 51°21' E 003°52'10 9.6
2017-Mar-19 11:33N 51°25' E 003°38'9 9.3
2017-Mar-19 10:33N 51°31' E 003°27'9 9.5
2017-Mar-19 09:33N 51°39' E 003°20'9 8.0
2017-Mar-19 08:24N 51°48' E 003°15'89 6.4
2017-Mar-18 18:33N 53°07' E 004°21'209 8.9
2017-Mar-17 19:05N 56°10' E 007°15'5 9.1
2017-Mar-17 18:32N 56°15' E 007°20'9 8.9
2017-Mar-17 17:33N 56°22' E 007°28'151 8.3
2017-Mar-16 23:24N 58°28' E 010°04'8 9.0
2017-Mar-16 22:32N 58°35' E 010°12'8 8.6
2017-Mar-16 21:33N 58°42' E 010°21'9 8.5
2017-Mar-16 20:33N 58°49' E 010°29'8 8.5
2017-Mar-16 19:33N 58°56' E 010°38'8 7.7
2017-Mar-16 18:33N 59°02' E 010°48'7 6.6
2017-Mar-16 17:33N 59°06' E 010°58'9 9.4
2017-Mar-16 16:33N 59°15' E 011°01'2 2.0
2017-Mar-16 15:33N 59°16' E 011°05'0 0.0
2017-Mar-16 14:32N 59°16' E 011°05'0 0.0
2017-Mar-16 13:32N 59°16' E 011°05'0 0.0
2017-Mar-16 12:32N 59°16' E 011°05'0 0.0
2017-Mar-16 11:32N 59°16' E 011°05'0 0.0
2017-Mar-16 10:32N 59°16' E 011°05'0 0.0
2017-Mar-16 09:32N 59°16' E 011°05'0 0.0
2017-Mar-16 08:32N 59°16' E 011°05'0 0.0
2017-Mar-16 07:32N 59°16' E 011°05'0 0.0
2017-Mar-16 06:32N 59°16' E 011°05'0 0.0
2017-Mar-16 05:32N 59°16' E 011°05'0 0.0
2017-Mar-16 04:32N 59°16' E 011°05'0 0.0
2017-Mar-16 03:29N 59°16' E 011°05'0 0.0
2017-Mar-16 02:32N 59°16' E 011°05'0 0.0
2017-Mar-16 01:32N 59°16' E 011°05'0 0.0
2017-Mar-16 00:32N 59°16' E 011°05'0 0.0
2017-Mar-15 23:33N 59°16' E 011°05'0 0.0
2017-Mar-15 22:33N 59°16' E 011°05'0 0.0
2017-Mar-15 21:33N 59°16' E 011°05'0 0.0
2017-Mar-15 20:30N 59°16' E 011°05'0 0.0
2017-Mar-15 19:33N 59°16' E 011°05'0 0.0
2017-Mar-15 18:33N 59°16' E 011°05'0 0.0
2017-Mar-15 17:33N 59°16' E 011°05'0 0.0
2017-Mar-15 16:33N 59°16' E 011°05'0 0.0
2017-Mar-15 15:33N 59°16' E 011°05'0 0.0
2017-Mar-15 14:33N 59°16' E 011°05'0 0.0
2017-Mar-15 13:33N 59°16' E 011°05'0 0.0
2017-Mar-15 12:33N 59°16' E 011°05'0 0.0
2017-Mar-15 11:33N 59°16' E 011°05'0 0.0
2017-Mar-15 10:33N 59°16' E 011°05'0 0.0
2017-Mar-15 09:30N 59°16' E 011°05'0 0.0
2017-Mar-15 08:33N 59°16' E 011°05'0 0.0
2017-Mar-15 07:33N 59°16' E 011°05'0 0.0
2017-Mar-15 06:30N 59°16' E 011°05'0 0.0
2017-Mar-15 05:33N 59°16' E 011°05'0 0.0
2017-Mar-15 04:33N 59°16' E 011°05'0 0.0
2017-Mar-15 03:33N 59°16' E 011°05'0 0.0
2017-Mar-15 02:33N 59°16' E 011°05'0 0.1
2017-Mar-15 01:33N 59°16' E 011°05'  
Track history (hours):
 
Tides and Currents Weather Stations Pressure Air Temp Water Temp Dewpoint Dewpoint Depression Visibility Wind Speed Wind Dir Waves Ship Positions

Forester

Last reported at 2017-Mar-25 01:32 UTC. Time now 2017-Mar-25 02:03 UTC.
Position N 51°15' E 004°23'.

Length 100 m; draft 4.8 m.

Type: Ship. MMSI: 211233870.

Date/timePositionNaut miles runAvg speedWind from/ knotsBaromVisibWave heightAir tempDewpointWater temp
2017-Mar-25 01:32N 51°15' E 004°23'0 0.0
2017-Mar-25 00:32N 51°15' E 004°23'0 0.0
2017-Mar-24 23:32N 51°15' E 004°23'0 0.0
2017-Mar-24 22:28N 51°15' E 004°23'0 0.0
2017-Mar-24 21:31N 51°15' E 004°23'0 0.0
2017-Mar-24 20:31N 51°15' E 004°23'0 0.0
2017-Mar-24 19:31N 51°15' E 004°23'0 0.0
2017-Mar-24 18:31N 51°15' E 004°23'0 0.0
2017-Mar-24 17:31N 51°15' E 004°23'0 0.0
2017-Mar-24 16:31N 51°15' E 004°23'0 0.0
2017-Mar-24 15:31N 51°15' E 004°23'0 0.0
2017-Mar-24 14:31N 51°15' E 004°23'0 0.0
2017-Mar-24 13:31N 51°15' E 004°23'0 0.0
2017-Mar-24 12:31N 51°15' E 004°23'0 0.0
2017-Mar-24 11:31N 51°15' E 004°23'0 0.0
2017-Mar-24 10:31N 51°15' E 004°23'0 0.0
2017-Mar-24 09:31N 51°15' E 004°23'0 0.0
2017-Mar-24 08:31N 51°15' E 004°23'0 0.0
2017-Mar-24 07:31N 51°15' E 004°23'0 0.0
2017-Mar-24 06:31N 51°15' E 004°23'0 0.0
2017-Mar-24 05:31N 51°15' E 004°23'0 0.0
2017-Mar-24 04:31N 51°15' E 004°23'0 0.0
2017-Mar-24 03:31N 51°15' E 004°23'0 0.0
2017-Mar-24 02:31N 51°15' E 004°23'0 0.0
2017-Mar-24 01:31N 51°15' E 004°23'0 0.0
2017-Mar-24 00:31N 51°15' E 004°23'0 0.0
2017-Mar-23 23:31N 51°15' E 004°23'0 0.0
2017-Mar-23 22:31N 51°15' E 004°23'0 0.0
2017-Mar-23 21:31N 51°15' E 004°23'0 0.0
2017-Mar-23 20:31N 51°15' E 004°23'0 0.0
2017-Mar-23 19:31N 51°15' E 004°23'0 0.0
2017-Mar-23 18:31N 51°15' E 004°23'0 0.0
2017-Mar-23 17:31N 51°15' E 004°23'0 0.0
2017-Mar-23 16:31N 51°15' E 004°23'0 0.0
2017-Mar-23 15:34N 51°15' E 004°23'0 0.0
2017-Mar-23 14:30N 51°15' E 004°23'0 0.0
2017-Mar-23 13:33N 51°15' E 004°23'0 0.0
2017-Mar-23 12:33N 51°15' E 004°23'0 0.0
2017-Mar-23 11:33N 51°15' E 004°23'0 0.0
2017-Mar-23 10:33N 51°15' E 004°23'0 0.0
2017-Mar-23 09:33N 51°15' E 004°23'0 0.0
2017-Mar-23 08:33N 51°15' E 004°23'0 0.0
2017-Mar-23 07:33N 51°15' E 004°23'0 0.0
2017-Mar-23 06:33N 51°15' E 004°23'3 2.7
2017-Mar-23 05:33N 51°17' E 004°20'2 1.7
2017-Mar-23 04:33N 51°15' E 004°18'8 7.6
2017-Mar-23 03:33N 51°08' E 004°19'2 2.2
2017-Mar-23 02:33N 51°06' E 004°20'2 0.1
2017-Mar-22 02:30N 51°05' E 004°22'  
2017-Mar-19 17:29N 51°06' E 004°19'1 1.5
2017-Mar-19 16:33N 51°07' E 004°18'8 7.6
2017-Mar-19 15:33N 51°14' E 004°24'7 7.5
2017-Mar-19 14:33N 51°20' E 004°16'12 9.0
2017-Mar-19 13:14N 51°26' E 003°60'710.5
2017-Mar-19 12:33N 51°21' E 003°52'10 9.6
2017-Mar-19 11:33N 51°25' E 003°38'9 9.3
2017-Mar-19 10:33N 51°31' E 003°27'9 9.5
2017-Mar-19 09:33N 51°39' E 003°20'9 8.0
2017-Mar-19 08:24N 51°48' E 003°15'89 6.4
2017-Mar-18 18:33N 53°07' E 004°21'209 8.9
2017-Mar-17 19:05N 56°10' E 007°15'5 9.1
2017-Mar-17 18:32N 56°15' E 007°20'9 8.9
2017-Mar-17 17:33N 56°22' E 007°28'151 8.3
2017-Mar-16 23:24N 58°28' E 010°04'8 9.0
2017-Mar-16 22:32N 58°35' E 010°12'8 8.6
2017-Mar-16 21:33N 58°42' E 010°21'9 8.5
2017-Mar-16 20:33N 58°49' E 010°29'8 8.5
2017-Mar-16 19:33N 58°56' E 010°38'8 7.7
2017-Mar-16 18:33N 59°02' E 010°48'7 6.6
2017-Mar-16 17:33N 59°06' E 010°58'9 9.4
2017-Mar-16 16:33N 59°15' E 011°01'2 2.0
2017-Mar-16 15:33N 59°16' E 011°05'0 0.0
2017-Mar-16 14:32N 59°16' E 011°05'0 0.0
2017-Mar-16 13:32N 59°16' E 011°05'0 0.0
2017-Mar-16 12:32N 59°16' E 011°05'0 0.0
2017-Mar-16 11:32N 59°16' E 011°05'0 0.0
2017-Mar-16 10:32N 59°16' E 011°05'0 0.0
2017-Mar-16 09:32N 59°16' E 011°05'0 0.0
2017-Mar-16 08:32N 59°16' E 011°05'0 0.0
2017-Mar-16 07:32N 59°16' E 011°05'0 0.0
2017-Mar-16 06:32N 59°16' E 011°05'0 0.0
2017-Mar-16 05:32N 59°16' E 011°05'0 0.0
2017-Mar-16 04:32N 59°16' E 011°05'0 0.0
2017-Mar-16 03:29N 59°16' E 011°05'0 0.0
2017-Mar-16 02:32N 59°16' E 011°05'0 0.0
2017-Mar-16 01:32N 59°16' E 011°05'0 0.0
2017-Mar-16 00:32N 59°16' E 011°05'0 0.0
2017-Mar-15 23:33N 59°16' E 011°05'0 0.0
2017-Mar-15 22:33N 59°16' E 011°05'0 0.0
2017-Mar-15 21:33N 59°16' E 011°05'0 0.0
2017-Mar-15 20:30N 59°16' E 011°05'0 0.0
2017-Mar-15 19:33N 59°16' E 011°05'0 0.0
2017-Mar-15 18:33N 59°16' E 011°05'0 0.0
2017-Mar-15 17:33N 59°16' E 011°05'0 0.0
2017-Mar-15 16:33N 59°16' E 011°05'0 0.0
2017-Mar-15 15:33N 59°16' E 011°05'0 0.0
2017-Mar-15 14:33N 59°16' E 011°05'0 0.0
2017-Mar-15 13:33N 59°16' E 011°05'0 0.0
2017-Mar-15 12:33N 59°16' E 011°05'0 0.0
2017-Mar-15 11:33N 59°16' E 011°05'0 0.0
2017-Mar-15 10:33N 59°16' E 011°05'0 0.0
2017-Mar-15 09:30N 59°16' E 011°05'0 0.0
2017-Mar-15 08:33N 59°16' E 011°05'0 0.0
2017-Mar-15 07:33N 59°16' E 011°05'0 0.0
2017-Mar-15 06:30N 59°16' E 011°05'0 0.0
2017-Mar-15 05:33N 59°16' E 011°05'0 0.0
2017-Mar-15 04:33N 59°16' E 011°05'0 0.0
2017-Mar-15 03:33N 59°16' E 011°05'0 0.0
2017-Mar-15 02:33N 59°16' E 011°05'0 0.1
2017-Mar-15 01:33N 59°16' E 011°05'  

Dump ship's entire track history